sensor_id;sensor_type;location;lat;lon;timestamp;pressure;altitude;pressure_sealevel;temperature;humidity
50242;BME280;36126;43.222;27.874;2023-09-19T00:01:45;101603.47;;;16.79;100.00
50242;BME280;36126;43.222;27.874;2023-09-19T00:04:14;101591.94;;;16.75;100.00
50242;BME280;36126;43.222;27.874;2023-09-19T00:06:40;101591.59;;;16.55;100.00
50242;BME280;36126;43.222;27.874;2023-09-19T00:09:05;101594.16;;;16.56;100.00
50242;BME280;36126;43.222;27.874;2023-09-19T00:11:36;101587.91;;;16.54;100.00
50242;BME280;36126;43.222;27.874;2023-09-19T00:14:01;101600.28;;;16.53;100.00
50242;BME280;36126;43.222;27.874;2023-09-19T00:16:27;101594.88;;;16.35;100.00
50242;BME280;36126;43.222;27.874;2023-09-19T00:18:53;101592.09;;;16.35;100.00
50242;BME280;36126;43.222;27.874;2023-09-19T00:21:18;101593.69;;;16.13;100.00
50242;BME280;36126;43.222;27.874;2023-09-19T00:23:44;101587.88;;;16.03;100.00
50242;BME280;36126;43.222;27.874;2023-09-19T00:26:10;101587.00;;;15.86;100.00
50242;BME280;36126;43.222;27.874;2023-09-19T00:28:35;101584.00;;;15.63;100.00
50242;BME280;36126;43.222;27.874;2023-09-19T00:31:01;101592.25;;;15.70;100.00
50242;BME280;36126;43.222;27.874;2023-09-19T00:33:27;101589.19;;;15.84;100.00
50242;BME280;36126;43.222;27.874;2023-09-19T00:35:55;101583.50;;;15.67;100.00
50242;BME280;36126;43.222;27.874;2023-09-19T00:38:22;101583.69;;;15.89;100.00
50242;BME280;36126;43.222;27.874;2023-09-19T00:40:52;101578.53;;;15.57;100.00
50242;BME280;36126;43.222;27.874;2023-09-19T00:43:18;101580.13;;;15.53;100.00
50242;BME280;36126;43.222;27.874;2023-09-19T00:45:44;101582.69;;;15.54;100.00
50242;BME280;36126;43.222;27.874;2023-09-19T00:48:11;101586.88;;;15.69;100.00
50242;BME280;36126;43.222;27.874;2023-09-19T00:50:37;101585.53;;;15.30;100.00
50242;BME280;36126;43.222;27.874;2023-09-19T00:53:05;101588.28;;;15.42;100.00
50242;BME280;36126;43.222;27.874;2023-09-19T00:55:33;101585.03;;;15.45;100.00
50242;BME280;36126;43.222;27.874;2023-09-19T00:57:59;101590.91;;;15.32;100.00
50242;BME280;36126;43.222;27.874;2023-09-19T01:00:25;101585.66;;;15.36;100.00
50242;BME280;36126;43.222;27.874;2023-09-19T01:02:51;101584.66;;;15.42;100.00
50242;BME280;36126;43.222;27.874;2023-09-19T01:05:16;101580.38;;;15.51;100.00
50242;BME280;36126;43.222;27.874;2023-09-19T01:07:42;101587.97;;;15.39;100.00
50242;BME280;36126;43.222;27.874;2023-09-19T01:10:10;101589.03;;;15.50;100.00
50242;BME280;36126;43.222;27.874;2023-09-19T01:12:45;101592.94;;;15.48;100.00
50242;BME280;36126;43.222;27.874;2023-09-19T01:15:32;101591.16;;;15.30;100.00
50242;BME280;36126;43.222;27.874;2023-09-19T01:20:41;101587.84;;;15.22;100.00
50242;BME280;36126;43.222;27.874;2023-09-19T01:23:23;101577.16;;;15.19;100.00
50242;BME280;36126;43.222;27.874;2023-09-19T01:26:07;101569.75;;;15.12;100.00
50242;BME280;36126;43.222;27.874;2023-09-19T01:28:43;101574.09;;;15.20;100.00
50242;BME280;36126;43.222;27.874;2023-09-19T01:31:12;101571.47;;;15.13;100.00
50242;BME280;36126;43.222;27.874;2023-09-19T01:36:24;101567.66;;;15.08;100.00
50242;BME280;36126;43.222;27.874;2023-09-19T01:38:50;101572.44;;;15.07;100.00
50242;BME280;36126;43.222;27.874;2023-09-19T01:41:17;101571.09;;;15.10;100.00
50242;BME280;36126;43.222;27.874;2023-09-19T01:43:47;101577.06;;;15.02;100.00
50242;BME280;36126;43.222;27.874;2023-09-19T01:52:00;101576.56;;;15.17;100.00
50242;BME280;36126;43.222;27.874;2023-09-19T01:54:04;101587.25;;;15.20;100.00
50242;BME280;36126;43.222;27.874;2023-09-19T01:56:38;101586.19;;;15.09;100.00
50242;BME280;36126;43.222;27.874;2023-09-19T01:59:13;101577.19;;;14.95;100.00
50242;BME280;36126;43.222;27.874;2023-09-19T02:01:39;101574.25;;;14.90;100.00
50242;BME280;36126;43.222;27.874;2023-09-19T02:04:05;101585.59;;;14.95;100.00
50242;BME280;36126;43.222;27.874;2023-09-19T02:06:32;101579.13;;;15.06;100.00
50242;BME280;36126;43.222;27.874;2023-09-19T02:08:59;101572.19;;;14.73;100.00
50242;BME280;36126;43.222;27.874;2023-09-19T02:11:24;101578.84;;;14.60;100.00
50242;BME280;36126;43.222;27.874;2023-09-19T02:13:50;101580.00;;;14.71;100.00
50242;BME280;36126;43.222;27.874;2023-09-19T02:16:19;101577.81;;;14.85;100.00
50242;BME280;36126;43.222;27.874;2023-09-19T02:18:47;101577.69;;;14.68;100.00
50242;BME280;36126;43.222;27.874;2023-09-19T02:21:14;101576.06;;;14.49;100.00
50242;BME280;36126;43.222;27.874;2023-09-19T02:23:40;101572.66;;;14.58;100.00
50242;BME280;36126;43.222;27.874;2023-09-19T02:26:06;101570.50;;;14.72;100.00
50242;BME280;36126;43.222;27.874;2023-09-19T02:28:31;101574.63;;;14.82;100.00
50242;BME280;36126;43.222;27.874;2023-09-19T02:30:57;101575.13;;;14.67;100.00
50242;BME280;36126;43.222;27.874;2023-09-19T02:33:23;101574.69;;;14.51;100.00
50242;BME280;36126;43.222;27.874;2023-09-19T02:35:48;101570.94;;;14.45;100.00
50242;BME280;36126;43.222;27.874;2023-09-19T02:38:14;101568.81;;;14.71;100.00
50242;BME280;36126;43.222;27.874;2023-09-19T02:40:43;101568.19;;;14.69;100.00
50242;BME280;36126;43.222;27.874;2023-09-19T02:43:09;101567.03;;;14.46;100.00
50242;BME280;36126;43.222;27.874;2023-09-19T02:45:35;101563.25;;;14.17;100.00
50242;BME280;36126;43.222;27.874;2023-09-19T02:48:00;101566.66;;;14.31;100.00
50242;BME280;36126;43.222;27.874;2023-09-19T02:50:27;101559.22;;;14.25;100.00
50242;BME280;36126;43.222;27.874;2023-09-19T02:52:53;101566.94;;;14.53;100.00
50242;BME280;36126;43.222;27.874;2023-09-19T02:55:18;101570.56;;;14.42;100.00
50242;BME280;36126;43.222;27.874;2023-09-19T02:57:51;101560.31;;;14.12;100.00
50242;BME280;36126;43.222;27.874;2023-09-19T03:00:18;101558.03;;;13.90;100.00
50242;BME280;36126;43.222;27.874;2023-09-19T03:02:47;101557.19;;;13.90;100.00
50242;BME280;36126;43.222;27.874;2023-09-19T03:05:13;101554.94;;;14.10;100.00
50242;BME280;36126;43.222;27.874;2023-09-19T03:07:38;101556.03;;;14.09;100.00
50242;BME280;36126;43.222;27.874;2023-09-19T03:10:05;101560.34;;;14.24;100.00
50242;BME280;36126;43.222;27.874;2023-09-19T03:12:31;101561.28;;;14.18;100.00
50242;BME280;36126;43.222;27.874;2023-09-19T03:14:57;101569.66;;;14.18;100.00
50242;BME280;36126;43.222;27.874;2023-09-19T03:17:22;101559.31;;;14.18;100.00
50242;BME280;36126;43.222;27.874;2023-09-19T03:19:48;101569.31;;;14.26;100.00
50242;BME280;36126;43.222;27.874;2023-09-19T03:22:17;101571.25;;;14.14;100.00
50242;BME280;36126;43.222;27.874;2023-09-19T03:24:43;101572.84;;;14.33;100.00
50242;BME280;36126;43.222;27.874;2023-09-19T03:27:09;101570.34;;;14.43;100.00
50242;BME280;36126;43.222;27.874;2023-09-19T03:29:35;101573.63;;;14.52;100.00
50242;BME280;36126;43.222;27.874;2023-09-19T03:32:00;101571.06;;;14.51;100.00
50242;BME280;36126;43.222;27.874;2023-09-19T03:34:26;101572.16;;;14.38;100.00
50242;BME280;36126;43.222;27.874;2023-09-19T03:36:52;101576.66;;;14.51;100.00
50242;BME280;36126;43.222;27.874;2023-09-19T03:39:17;101572.88;;;14.45;100.00
50242;BME280;36126;43.222;27.874;2023-09-19T03:41:43;101570.50;;;14.06;100.00
50242;BME280;36126;43.222;27.874;2023-09-19T03:44:08;101568.88;;;13.99;100.00
50242;BME280;36126;43.222;27.874;2023-09-19T03:46:34;101577.75;;;13.95;100.00
50242;BME280;36126;43.222;27.874;2023-09-19T03:49:01;101570.94;;;13.91;100.00
50242;BME280;36126;43.222;27.874;2023-09-19T03:51:26;101573.44;;;14.11;100.00
50242;BME280;36126;43.222;27.874;2023-09-19T03:53:52;101577.47;;;13.85;100.00
50242;BME280;36126;43.222;27.874;2023-09-19T03:56:17;101586.09;;;13.84;100.00
50242;BME280;36126;43.222;27.874;2023-09-19T03:58:42;101575.19;;;13.94;100.00
50242;BME280;36126;43.222;27.874;2023-09-19T04:01:08;101579.81;;;14.00;100.00
50242;BME280;36126;43.222;27.874;2023-09-19T04:03:33;101574.63;;;14.04;100.00
50242;BME280;36126;43.222;27.874;2023-09-19T04:06:13;101575.44;;;14.04;100.00
50242;BME280;36126;43.222;27.874;2023-09-19T04:08:38;101571.56;;;14.05;100.00
50242;BME280;36126;43.222;27.874;2023-09-19T04:11:04;101574.38;;;14.05;100.00
50242;BME280;36126;43.222;27.874;2023-09-19T04:13:30;101562.38;;;14.17;100.00
50242;BME280;36126;43.222;27.874;2023-09-19T04:15:55;101568.47;;;14.25;100.00
50242;BME280;36126;43.222;27.874;2023-09-19T04:18:20;101564.97;;;14.30;100.00
50242;BME280;36126;43.222;27.874;2023-09-19T04:20:51;101564.38;;;14.52;100.00
50242;BME280;36126;43.222;27.874;2023-09-19T04:23:16;101554.53;;;14.61;100.00
50242;BME280;36126;43.222;27.874;2023-09-19T04:25:42;101557.50;;;14.78;100.00
50242;BME280;36126;43.222;27.874;2023-09-19T04:28:08;101565.31;;;15.28;100.00
50242;BME280;36126;43.222;27.874;2023-09-19T04:30:36;101552.59;;;15.90;100.00
50242;BME280;36126;43.222;27.874;2023-09-19T04:33:02;101557.75;;;16.61;100.00
50242;BME280;36126;43.222;27.874;2023-09-19T04:35:28;101559.81;;;17.44;100.00
50242;BME280;36126;43.222;27.874;2023-09-19T04:37:56;101558.28;;;18.08;100.00
50242;BME280;36126;43.222;27.874;2023-09-19T04:40:22;101558.84;;;18.75;100.00
50242;BME280;36126;43.222;27.874;2023-09-19T04:42:56;101549.03;;;19.26;100.00
50242;BME280;36126;43.222;27.874;2023-09-19T04:45:22;101553.09;;;19.50;100.00
50242;BME280;36126;43.222;27.874;2023-09-19T04:47:47;101547.19;;;19.62;100.00
50242;BME280;36126;43.222;27.874;2023-09-19T04:50:13;101551.50;;;19.80;100.00
50242;BME280;36126;43.222;27.874;2023-09-19T04:52:42;101553.00;;;19.98;100.00
50242;BME280;36126;43.222;27.874;2023-09-19T04:55:15;101553.84;;;20.04;100.00
50242;BME280;36126;43.222;27.874;2023-09-19T04:57:44;101539.75;;;20.19;100.00
50242;BME280;36126;43.222;27.874;2023-09-19T05:00:14;101540.31;;;20.42;100.00
50242;BME280;36126;43.222;27.874;2023-09-19T05:02:40;101535.78;;;20.62;100.00
50242;BME280;36126;43.222;27.874;2023-09-19T05:05:07;101532.31;;;21.16;100.00
50242;BME280;36126;43.222;27.874;2023-09-19T05:07:34;101524.59;;;21.92;100.00
50242;BME280;36126;43.222;27.874;2023-09-19T05:09:59;101532.06;;;22.52;100.00
50242;BME280;36126;43.222;27.874;2023-09-19T05:12:26;101527.84;;;22.79;100.00
50242;BME280;36126;43.222;27.874;2023-09-19T05:14:51;101532.66;;;23.32;100.00
50242;BME280;36126;43.222;27.874;2023-09-19T05:17:17;101534.25;;;23.63;100.00
50242;BME280;36126;43.222;27.874;2023-09-19T05:19:42;101522.84;;;23.43;100.00
50242;BME280;36126;43.222;27.874;2023-09-19T05:22:08;101534.09;;;23.30;100.00
50242;BME280;36126;43.222;27.874;2023-09-19T05:24:33;101529.50;;;22.56;100.00
50242;BME280;36126;43.222;27.874;2023-09-19T05:26:59;101531.22;;;22.12;100.00
50242;BME280;36126;43.222;27.874;2023-09-19T05:29:24;101519.06;;;21.72;100.00
50242;BME280;36126;43.222;27.874;2023-09-19T05:31:50;101523.78;;;21.27;100.00
50242;BME280;36126;43.222;27.874;2023-09-19T05:34:16;101524.19;;;20.99;100.00
50242;BME280;36126;43.222;27.874;2023-09-19T05:36:41;101524.50;;;20.56;100.00
50242;BME280;36126;43.222;27.874;2023-09-19T05:39:07;101522.25;;;20.48;100.00
50242;BME280;36126;43.222;27.874;2023-09-19T05:41:35;101522.81;;;20.30;100.00
50242;BME280;36126;43.222;27.874;2023-09-19T05:44:02;101520.56;;;20.21;100.00
50242;BME280;36126;43.222;27.874;2023-09-19T05:46:28;101527.31;;;19.95;100.00
50242;BME280;36126;43.222;27.874;2023-09-19T05:48:55;101519.13;;;19.88;100.00
50242;BME280;36126;43.222;27.874;2023-09-19T05:51:22;101529.03;;;20.11;100.00
50242;BME280;36126;43.222;27.874;2023-09-19T05:53:47;101524.50;;;20.26;100.00
50242;BME280;36126;43.222;27.874;2023-09-19T05:56:13;101523.38;;;20.06;100.00
50242;BME280;36126;43.222;27.874;2023-09-19T05:58:40;101531.84;;;20.32;100.00
50242;BME280;36126;43.222;27.874;2023-09-19T06:01:08;101527.34;;;20.41;100.00
50242;BME280;36126;43.222;27.874;2023-09-19T06:03:34;101519.97;;;20.66;100.00
50242;BME280;36126;43.222;27.874;2023-09-19T06:06:01;101528.75;;;20.75;100.00
50242;BME280;36126;43.222;27.874;2023-09-19T06:08:27;101522.75;;;21.02;100.00
50242;BME280;36126;43.222;27.874;2023-09-19T06:10:53;101527.53;;;21.06;100.00
50242;BME280;36126;43.222;27.874;2023-09-19T06:13:19;101532.59;;;21.15;100.00
50242;BME280;36126;43.222;27.874;2023-09-19T06:15:45;101535.66;;;21.23;100.00
50242;BME280;36126;43.222;27.874;2023-09-19T06:18:12;101536.47;;;21.29;100.00
50242;BME280;36126;43.222;27.874;2023-09-19T06:20:47;101539.88;;;21.36;100.00
50242;BME280;36126;43.222;27.874;2023-09-19T06:23:13;101539.22;;;21.60;100.00
50242;BME280;36126;43.222;27.874;2023-09-19T06:25:39;101544.69;;;21.91;100.00
50242;BME280;36126;43.222;27.874;2023-09-19T06:28:05;101542.75;;;21.86;100.00
50242;BME280;36126;43.222;27.874;2023-09-19T06:30:33;101542.94;;;22.00;100.00
50242;BME280;36126;43.222;27.874;2023-09-19T06:33:00;101542.31;;;22.08;100.00
50242;BME280;36126;43.222;27.874;2023-09-19T06:35:25;101550.47;;;22.15;100.00
50242;BME280;36126;43.222;27.874;2023-09-19T06:37:51;101551.00;;;22.17;100.00
50242;BME280;36126;43.222;27.874;2023-09-19T06:40:17;101548.13;;;22.62;100.00
50242;BME280;36126;43.222;27.874;2023-09-19T06:42:47;101544.47;;;22.22;100.00
50242;BME280;36126;43.222;27.874;2023-09-19T06:45:15;101553.47;;;22.29;100.00
50242;BME280;36126;43.222;27.874;2023-09-19T06:47:44;101553.50;;;22.93;100.00
50242;BME280;36126;43.222;27.874;2023-09-19T06:50:10;101548.63;;;23.47;100.00
50242;BME280;36126;43.222;27.874;2023-09-19T06:52:39;101551.84;;;23.84;100.00
50242;BME280;36126;43.222;27.874;2023-09-19T06:55:05;101554.22;;;23.96;100.00
50242;BME280;36126;43.222;27.874;2023-09-19T06:57:31;101549.69;;;24.33;100.00
50242;BME280;36126;43.222;27.874;2023-09-19T06:59:57;101541.97;;;24.52;100.00
50242;BME280;36126;43.222;27.874;2023-09-19T07:02:23;101552.38;;;24.90;100.00
50242;BME280;36126;43.222;27.874;2023-09-19T07:04:48;101547.56;;;24.90;100.00
50242;BME280;36126;43.222;27.874;2023-09-19T07:07:15;101549.31;;;24.20;100.00
50242;BME280;36126;43.222;27.874;2023-09-19T07:09:40;101537.59;;;24.08;100.00
50242;BME280;36126;43.222;27.874;2023-09-19T07:12:07;101544.63;;;24.30;100.00
50242;BME280;36126;43.222;27.874;2023-09-19T07:14:33;101553.00;;;24.73;100.00
50242;BME280;36126;43.222;27.874;2023-09-19T07:16:58;101548.31;;;25.24;100.00
50242;BME280;36126;43.222;27.874;2023-09-19T07:19:26;101549.53;;;25.87;100.00
50242;BME280;36126;43.222;27.874;2023-09-19T07:21:54;101550.91;;;26.04;100.00
50242;BME280;36126;43.222;27.874;2023-09-19T07:24:19;101549.47;;;26.15;100.00
50242;BME280;36126;43.222;27.874;2023-09-19T07:26:47;101546.41;;;26.11;100.00
50242;BME280;36126;43.222;27.874;2023-09-19T07:29:13;101550.19;;;26.66;100.00
50242;BME280;36126;43.222;27.874;2023-09-19T07:31:38;101552.84;;;27.17;100.00
50242;BME280;36126;43.222;27.874;2023-09-19T07:34:04;101546.66;;;27.81;100.00
50242;BME280;36126;43.222;27.874;2023-09-19T07:36:30;101545.78;;;27.54;100.00
50242;BME280;36126;43.222;27.874;2023-09-19T07:38:57;101548.78;;;26.55;100.00
50242;BME280;36126;43.222;27.874;2023-09-19T07:41:23;101550.28;;;26.29;100.00
50242;BME280;36126;43.222;27.874;2023-09-19T07:43:49;101550.16;;;26.89;100.00
50242;BME280;36126;43.222;27.874;2023-09-19T07:46:15;101547.16;;;26.85;100.00
50242;BME280;36126;43.222;27.874;2023-09-19T07:48:40;101537.09;;;26.65;100.00
50242;BME280;36126;43.222;27.874;2023-09-19T07:51:09;101527.28;;;25.89;100.00
50242;BME280;36126;43.222;27.874;2023-09-19T07:53:34;101530.97;;;26.26;100.00
50242;BME280;36126;43.222;27.874;2023-09-19T07:56:04;101525.66;;;26.56;100.00
50242;BME280;36126;43.222;27.874;2023-09-19T07:58:30;101532.03;;;26.85;100.00
50242;BME280;36126;43.222;27.874;2023-09-19T08:00:56;101524.16;;;27.22;100.00
50242;BME280;36126;43.222;27.874;2023-09-19T08:03:22;101528.81;;;27.49;100.00
50242;BME280;36126;43.222;27.874;2023-09-19T08:05:47;101526.97;;;27.53;100.00
50242;BME280;36126;43.222;27.874;2023-09-19T08:08:13;101524.31;;;27.17;100.00
50242;BME280;36126;43.222;27.874;2023-09-19T08:10:39;101533.81;;;27.03;100.00
50242;BME280;36126;43.222;27.874;2023-09-19T08:13:07;101520.38;;;26.95;100.00
50242;BME280;36126;43.222;27.874;2023-09-19T08:15:36;101520.47;;;27.30;100.00
50242;BME280;36126;43.222;27.874;2023-09-19T08:18:09;101519.50;;;28.01;100.00
50242;BME280;36126;43.222;27.874;2023-09-19T08:20:37;101519.31;;;28.41;100.00
50242;BME280;36126;43.222;27.874;2023-09-19T08:23:03;101516.56;;;28.62;100.00
50242;BME280;36126;43.222;27.874;2023-09-19T08:25:28;101511.53;;;28.59;100.00
50242;BME280;36126;43.222;27.874;2023-09-19T08:27:54;101510.41;;;28.34;100.00
50242;BME280;36126;43.222;27.874;2023-09-19T08:30:23;101502.66;;;27.82;100.00
50242;BME280;36126;43.222;27.874;2023-09-19T08:32:50;101500.09;;;28.59;100.00
50242;BME280;36126;43.222;27.874;2023-09-19T08:35:15;101495.66;;;28.79;100.00
50242;BME280;36126;43.222;27.874;2023-09-19T08:37:44;101494.38;;;29.15;100.00
50242;BME280;36126;43.222;27.874;2023-09-19T08:40:13;101494.75;;;29.05;100.00
50242;BME280;36126;43.222;27.874;2023-09-19T08:42:51;101486.56;;;28.95;100.00
50242;BME280;36126;43.222;27.874;2023-09-19T08:45:19;101492.91;;;27.74;100.00
50242;BME280;36126;43.222;27.874;2023-09-19T08:47:46;101485.19;;;28.19;100.00
50242;BME280;36126;43.222;27.874;2023-09-19T08:50:22;101482.16;;;27.62;100.00
50242;BME280;36126;43.222;27.874;2023-09-19T08:52:49;101478.28;;;27.01;100.00
50242;BME280;36126;43.222;27.874;2023-09-19T08:55:18;101474.03;;;26.58;100.00
50242;BME280;36126;43.222;27.874;2023-09-19T08:57:49;101482.38;;;26.54;100.00
50242;BME280;36126;43.222;27.874;2023-09-19T09:00:14;101470.41;;;26.12;100.00
50242;BME280;36126;43.222;27.874;2023-09-19T09:02:42;101476.59;;;26.37;100.00
50242;BME280;36126;43.222;27.874;2023-09-19T09:05:08;101471.56;;;26.11;100.00
50242;BME280;36126;43.222;27.874;2023-09-19T09:07:37;101467.81;;;26.02;100.00
50242;BME280;36126;43.222;27.874;2023-09-19T09:10:04;101465.88;;;26.11;100.00
50242;BME280;36126;43.222;27.874;2023-09-19T09:12:29;101469.69;;;26.06;100.00
50242;BME280;36126;43.222;27.874;2023-09-19T09:14:55;101467.25;;;26.00;100.00
50242;BME280;36126;43.222;27.874;2023-09-19T09:17:25;101457.91;;;25.99;100.00
50242;BME280;36126;43.222;27.874;2023-09-19T09:19:54;101460.13;;;26.02;100.00
50242;BME280;36126;43.222;27.874;2023-09-19T09:22:19;101454.19;;;25.98;100.00
50242;BME280;36126;43.222;27.874;2023-09-19T09:24:55;101455.06;;;26.22;100.00
50242;BME280;36126;43.222;27.874;2023-09-19T09:27:24;101450.66;;;26.16;100.00
50242;BME280;36126;43.222;27.874;2023-09-19T09:29:50;101457.56;;;26.01;100.00
50242;BME280;36126;43.222;27.874;2023-09-19T09:32:16;101459.06;;;26.21;100.00
50242;BME280;36126;43.222;27.874;2023-09-19T09:34:43;101459.19;;;26.38;100.00
50242;BME280;36126;43.222;27.874;2023-09-19T09:37:13;101458.44;;;26.55;100.00
50242;BME280;36126;43.222;27.874;2023-09-19T09:39:42;101451.03;;;26.54;100.00
50242;BME280;36126;43.222;27.874;2023-09-19T09:42:50;101451.94;;;26.32;100.00
50242;BME280;36126;43.222;27.874;2023-09-19T09:45:15;101447.34;;;26.45;100.00
50242;BME280;36126;43.222;27.874;2023-09-19T09:47:45;101443.69;;;26.53;100.00
50242;BME280;36126;43.222;27.874;2023-09-19T09:50:27;101439.63;;;26.45;100.00
50242;BME280;36126;43.222;27.874;2023-09-19T09:52:57;101436.19;;;26.35;100.00
50242;BME280;36126;43.222;27.874;2023-09-19T09:56:16;101434.81;;;26.23;100.00
50242;BME280;36126;43.222;27.874;2023-09-19T09:58:17;101437.66;;;26.55;100.00
50242;BME280;36126;43.222;27.874;2023-09-19T10:00:53;101429.53;;;26.39;100.00
50242;BME280;36126;43.222;27.874;2023-09-19T10:03:30;101434.94;;;26.18;100.00
50242;BME280;36126;43.222;27.874;2023-09-19T10:05:57;101437.66;;;26.01;100.00
50242;BME280;36126;43.222;27.874;2023-09-19T10:08:28;101432.16;;;26.04;100.00
50242;BME280;36126;43.222;27.874;2023-09-19T10:10:56;101434.22;;;25.90;100.00
50242;BME280;36126;43.222;27.874;2023-09-19T10:13:29;101438.97;;;25.80;100.00
50242;BME280;36126;43.222;27.874;2023-09-19T10:15:56;101434.88;;;25.73;100.00
50242;BME280;36126;43.222;27.874;2023-09-19T10:18:24;101426.50;;;25.68;100.00
50242;BME280;36126;43.222;27.874;2023-09-19T10:20:50;101432.97;;;25.82;100.00
50242;BME280;36126;43.222;27.874;2023-09-19T10:23:17;101429.09;;;25.78;100.00
50242;BME280;36126;43.222;27.874;2023-09-19T10:25:48;101424.50;;;25.91;100.00
50242;BME280;36126;43.222;27.874;2023-09-19T10:28:15;101423.94;;;25.80;100.00
50242;BME280;36126;43.222;27.874;2023-09-19T10:30:42;101419.53;;;25.96;100.00
50242;BME280;36126;43.222;27.874;2023-09-19T10:33:13;101415.78;;;26.10;100.00
50242;BME280;36126;43.222;27.874;2023-09-19T10:35:41;101414.06;;;26.31;100.00
50242;BME280;36126;43.222;27.874;2023-09-19T10:38:07;101419.41;;;26.02;100.00
50242;BME280;36126;43.222;27.874;2023-09-19T10:40:35;101417.59;;;26.06;100.00
50242;BME280;36126;43.222;27.874;2023-09-19T10:43:04;101414.78;;;25.92;100.00
50242;BME280;36126;43.222;27.874;2023-09-19T10:45:31;101411.28;;;26.09;100.00
50242;BME280;36126;43.222;27.874;2023-09-19T10:47:57;101405.47;;;26.54;100.00
50242;BME280;36126;43.222;27.874;2023-09-19T10:50:22;101402.38;;;26.42;100.00
50242;BME280;36126;43.222;27.874;2023-09-19T10:52:49;101394.50;;;26.70;100.00
50242;BME280;36126;43.222;27.874;2023-09-19T10:55:17;101394.56;;;26.16;100.00
50242;BME280;36126;43.222;27.874;2023-09-19T10:57:47;101394.03;;;26.14;100.00
50242;BME280;36126;43.222;27.874;2023-09-19T11:00:13;101377.50;;;26.25;100.00
50242;BME280;36126;43.222;27.874;2023-09-19T11:05:32;101382.28;;;26.70;100.00
50242;BME280;36126;43.222;27.874;2023-09-19T11:07:59;101384.69;;;26.54;100.00
50242;BME280;36126;43.222;27.874;2023-09-19T11:10:49;101391.00;;;26.42;100.00
50242;BME280;36126;43.222;27.874;2023-09-19T11:13:31;101391.00;;;26.42;100.00
50242;BME280;36126;43.222;27.874;2023-09-19T11:27:10;101372.16;;;26.01;100.00
50242;BME280;36126;43.222;27.874;2023-09-19T11:29:38;101366.22;;;26.11;100.00
50242;BME280;36126;43.222;27.874;2023-09-19T11:32:04;101366.00;;;26.30;100.00
50242;BME280;36126;43.222;27.874;2023-09-19T11:39:36;101374.34;;;26.67;100.00
50242;BME280;36126;43.222;27.874;2023-09-19T11:42:40;101377.69;;;27.18;100.00
50242;BME280;36126;43.222;27.874;2023-09-19T11:44:49;101365.69;;;26.72;100.00
50242;BME280;36126;43.222;27.874;2023-09-19T11:47:17;101363.09;;;27.02;100.00
50242;BME280;36126;43.222;27.874;2023-09-19T11:49:44;101363.69;;;26.81;100.00
50242;BME280;36126;43.222;27.874;2023-09-19T11:52:09;101371.81;;;27.14;100.00
50242;BME280;36126;43.222;27.874;2023-09-19T11:54:39;101353.91;;;27.75;100.00
50242;BME280;36126;43.222;27.874;2023-09-19T11:57:06;101352.72;;;28.02;100.00
50242;BME280;36126;43.222;27.874;2023-09-19T11:59:33;101356.75;;;27.66;100.00
50242;BME280;36126;43.222;27.874;2023-09-19T12:02:04;101347.38;;;27.57;100.00
50242;BME280;36126;43.222;27.874;2023-09-19T12:06:57;101345.69;;;27.47;100.00
50242;BME280;36126;43.222;27.874;2023-09-19T12:09:23;101344.50;;;27.48;100.00
50242;BME280;36126;43.222;27.874;2023-09-19T12:11:50;101351.50;;;27.07;100.00
50242;BME280;36126;43.222;27.874;2023-09-19T12:14:23;101347.66;;;27.03;100.00
50242;BME280;36126;43.222;27.874;2023-09-19T12:16:54;101342.25;;;26.84;100.00
50242;BME280;36126;43.222;27.874;2023-09-19T12:19:21;101340.56;;;26.83;100.00
50242;BME280;36126;43.222;27.874;2023-09-19T12:21:56;101333.06;;;26.46;100.00
50242;BME280;36126;43.222;27.874;2023-09-19T12:24:23;101331.50;;;26.40;100.00
50242;BME280;36126;43.222;27.874;2023-09-19T12:26:51;101341.72;;;26.33;100.00
50242;BME280;36126;43.222;27.874;2023-09-19T12:29:18;101337.41;;;26.44;100.00
50242;BME280;36126;43.222;27.874;2023-09-19T12:31:51;101330.56;;;26.13;100.00
50242;BME280;36126;43.222;27.874;2023-09-19T12:34:20;101331.63;;;25.95;100.00
50242;BME280;36126;43.222;27.874;2023-09-19T12:36:46;101323.91;;;25.27;100.00
50242;BME280;36126;43.222;27.874;2023-09-19T12:39:22;101334.47;;;25.72;100.00
50242;BME280;36126;43.222;27.874;2023-09-19T12:41:48;101322.38;;;25.67;100.00
50242;BME280;36126;43.222;27.874;2023-09-19T12:44:16;101327.75;;;25.68;100.00
50242;BME280;36126;43.222;27.874;2023-09-19T12:46:43;101319.84;;;25.42;100.00
50242;BME280;36126;43.222;27.874;2023-09-19T12:49:19;101318.78;;;25.52;100.00
50242;BME280;36126;43.222;27.874;2023-09-19T12:51:46;101321.88;;;25.28;100.00
50242;BME280;36126;43.222;27.874;2023-09-19T12:54:12;101313.44;;;25.37;100.00
50242;BME280;36126;43.222;27.874;2023-09-19T12:56:40;101303.00;;;25.09;100.00
50242;BME280;36126;43.222;27.874;2023-09-19T12:59:11;101312.84;;;24.89;100.00
50242;BME280;36126;43.222;27.874;2023-09-19T13:01:38;101308.81;;;25.04;100.00
50242;BME280;36126;43.222;27.874;2023-09-19T13:04:20;101315.59;;;25.17;100.00
50242;BME280;36126;43.222;27.874;2023-09-19T13:06:54;101307.81;;;24.86;100.00